Time;durP1;ratioP1;P1;durP2;ratioP2;P2;SDS_P1;SDS_P2;PMS_P1;PMS_P2;Temp;Humidity;BMP_temperature;BMP_pressure;BME280_temperature;BME280_humidity;BME280_pressure;Samples;Min_cycle;Max_cycle;Signal;HPM_P1;HPM_P2
2023/02/20 00:01:56;;;;;;;29.87;12.63;;;-0.30;99.90;;;;;;4382136;28;659462;-73
2023/02/20 00:04:43;;;;;;;30.00;11.70;;;-0.30;99.90;;;;;;4407607;28;660458;-74
2023/02/20 00:07:30;;;;;;;30.80;11.97;;;-0.30;99.90;;;;;;4384878;28;659554;-73
2023/02/20 00:10:18;;;;;;;24.77;10.50;;;-0.30;99.90;;;;;;4411256;28;659885;-74
2023/02/20 00:13:07;;;;;;;30.08;11.52;;;-0.30;1.00;;;;;;4386113;28;659780;-73
2023/02/20 00:15:54;;;;;;;30.90;12.77;;;-0.30;99.90;;;;;;4411073;28;658788;-73
2023/02/20 00:18:41;;;;;;;26.00;10.23;;;-0.30;99.90;;;;;;4390251;28;659697;-74
2023/02/20 00:21:28;;;;;;;34.37;13.27;;;-0.30;99.90;;;;;;4409278;28;659673;-74
2023/02/20 00:24:16;;;;;;;33.77;13.33;;;-0.40;1.00;;;;;;4389947;28;659584;-74
2023/02/20 00:27:03;;;;;;;27.97;10.40;;;-0.40;1.00;;;;;;4409011;28;659482;-74
2023/02/20 00:29:52;;;;;;;33.78;13.23;;;-0.40;99.90;;;;;;4391337;28;659273;-74
2023/02/20 00:32:39;;;;;;;33.40;11.83;;;-0.40;99.90;;;;;;4408824;28;659578;-74
2023/02/20 00:35:26;;;;;;;32.57;12.43;;;-0.40;99.90;;;;;;4384905;28;659638;-73
2023/02/20 00:38:13;;;;;;;28.60;11.97;;;-0.30;99.90;;;;;;4406060;28;660051;-74
2023/02/20 00:41:01;;;;;;;28.50;10.87;;;-0.40;99.90;;;;;;4382705;28;659791;-74
2023/02/20 00:43:48;;;;;;;24.37;10.73;;;-0.40;99.90;;;;;;4410578;28;660655;-74
2023/02/20 00:46:37;;;;;;;28.88;11.50;;;-0.40;1.00;;;;;;4389269;28;659914;-74
2023/02/20 00:49:24;;;;;;;26.17;10.63;;;-0.40;99.90;;;;;;4405509;28;658001;-74
2023/02/20 00:52:11;;;;;;;28.03;11.80;;;-0.30;1.00;;;;;;4391030;28;660460;-74
2023/02/20 00:54:58;;;;;;;29.45;11.00;;;-0.30;1.00;;;;;;4410497;28;659233;-74
2023/02/20 00:57:45;;;;;;;27.67;10.37;;;-0.30;1.00;;;;;;4389859;28;658531;-74
2023/02/20 01:00:33;;;;;;;33.13;11.03;;;-0.30;1.00;;;;;;4409900;28;659061;-74
2023/02/20 01:03:22;;;;;;;23.13;8.93;;;-0.30;99.90;;;;;;4398990;28;658706;-74
2023/02/20 01:06:09;;;;;;;27.00;11.53;;;-0.30;99.90;;;;;;4410619;28;658454;-74
2023/02/20 01:08:56;;;;;;;30.80;11.20;;;-0.30;99.90;;;;;;4384280;28;659787;-74
2023/02/20 01:11:43;;;;;;;30.00;9.37;;;-0.30;99.90;;;;;;4411409;28;660837;-74
2023/02/20 01:14:31;;;;;;;31.10;11.27;;;-0.30;99.90;;;;;;4389785;28;658590;-74
2023/02/20 01:17:18;;;;;;;23.53;9.43;;;-0.30;99.90;;;;;;4410408;28;659759;-74
2023/02/20 01:20:08;;;;;;;27.92;10.93;;;-0.20;99.90;;;;;;4385393;28;658788;-74
2023/02/20 01:22:55;;;;;;;30.70;10.63;;;-0.20;99.90;;;;;;4398269;28;659898;-74
2023/02/20 01:25:43;;;;;;;33.13;10.67;;;-0.20;99.90;;;;;;4407689;28;660505;-74
2023/02/20 01:28:30;;;;;;;28.43;11.70;;;-0.20;99.90;;;;;;4399186;28;660309;-74
2023/02/20 01:31:17;;;;;;;32.27;10.77;;;-0.20;99.90;;;;;;4412517;28;660756;-74
2023/02/20 01:34:05;;;;;;;25.20;11.23;;;-0.20;99.90;;;;;;4406907;28;659856;-74
2023/02/20 01:36:54;;;;;;;35.90;12.20;;;-0.30;1.00;;;;;;4381316;28;660460;-74
2023/02/20 01:39:41;;;;;;;28.60;10.90;;;-0.20;1.00;;;;;;4386376;28;658707;-74
2023/02/20 01:42:30;;;;;;;25.93;11.03;;;-0.20;1.00;;;;;;4409257;28;658785;-74
2023/02/20 01:45:29;;;;;;;25.57;10.80;;;-0.20;1.00;;;;;;4375027;28;659346;-74
2023/02/20 01:48:21;;;;;;;24.63;11.33;;;-0.20;1.00;;;;;;4376467;28;658259;-74
2023/02/20 01:51:08;;;;;;;30.67;11.90;;;-0.20;1.00;;;;;;4377917;28;659130;-74
2023/02/20 01:53:57;;;;;;;23.03;9.70;;;-0.20;1.00;;;;;;4378837;28;658722;-74
2023/02/20 01:56:44;;;;;;;27.20;10.50;;;-0.20;1.00;;;;;;4403203;28;657570;-74
2023/02/20 01:59:32;;;;;;;26.45;10.50;;;-0.20;1.00;;;;;;4383846;28;658500;-74
2023/02/20 02:02:20;;;;;;;29.83;11.33;;;-0.10;1.00;;;;;;4394087;28;658602;-73
2023/02/20 02:05:08;;;;;;;26.70;10.37;;;-0.20;1.00;;;;;;4399123;28;659486;-74
2023/02/20 02:07:55;;;;;;;28.35;10.75;;;-0.10;1.00;;;;;;4382551;28;659080;-74
2023/02/20 02:10:49;;;;;;;29.13;10.83;;;-0.10;99.90;;;;;;4411573;28;659263;-74
2023/02/20 02:13:37;;;;;;;29.33;11.30;;;-0.10;99.90;;;;;;4378998;28;660239;-74
2023/02/20 02:16:27;;;;;;;21.87;6.97;;;-0.10;99.90;;;;;;4405898;28;659936;-74
2023/02/20 02:19:22;;;;;;;19.70;9.17;;;-0.10;99.90;;;;;;4404764;28;658672;-74
2023/02/20 02:22:29;;;;;;;19.97;8.17;;;-0.10;99.90;;;;;;4389298;28;659037;-74
2023/02/20 02:25:23;;;;;;;21.40;9.67;;;-0.10;99.90;;;;;;4359780;28;659276;-74
2023/02/20 02:28:41;;;;;;;26.73;9.93;;;-0.20;99.90;;;;;;4375828;28;658727;-74
2023/02/20 02:31:54;;;;;;;29.67;11.87;;;-0.20;99.90;;;;;;4382974;28;658793;-74
2023/02/20 02:35:10;;;;;;;27.33;11.43;;;-0.10;1.00;;;;;;4383164;28;659436;-74
2023/02/20 02:38:03;;;;;;;24.10;11.23;;;-0.10;1.00;;;;;;4361747;28;659339;-75
2023/02/20 02:40:54;;;;;;;24.37;10.27;;;-0.10;1.00;;;;;;4366727;28;658746;-74
2023/02/20 02:43:45;;;;;;;23.60;10.93;;;-0.10;99.90;;;;;;4384813;28;658726;-74
2023/02/20 02:46:34;;;;;;;26.37;10.57;;;-0.10;99.90;;;;;;4382723;28;660998;-74
2023/02/20 02:49:25;;;;;;;25.33;9.03;;;-0.10;99.90;;;;;;4386766;28;660914;-75
2023/02/20 02:52:37;;;;;;;22.77;10.27;;;-0.10;99.90;;;;;;4382765;28;659184;-74
2023/02/20 02:55:23;;;;;;;22.20;9.57;;;-0.20;99.90;;;;;;4358886;28;659910;-74
2023/02/20 02:58:10;;;;;;;26.57;9.97;;;-0.20;99.90;;;;;;4386977;28;658808;-74
2023/02/20 03:00:58;;;;;;;23.73;9.50;;;-0.10;99.90;;;;;;4406459;28;660066;-74
2023/02/20 03:03:46;;;;;;;21.57;9.17;;;-0.10;99.90;;;;;;4384975;28;658745;-74
2023/02/20 03:06:34;;;;;;;24.17;9.53;;;-0.20;99.90;;;;;;4411002;28;658770;-74
2023/02/20 03:09:24;;;;;;;20.90;9.47;;;-0.10;99.90;;;;;;4390487;28;658591;-74
2023/02/20 03:12:13;;;;;;;26.67;10.65;;;-0.10;99.90;;;;;;4384361;28;658635;-74
2023/02/20 03:18:19;;;;;;;28.83;11.57;;;-0.20;99.90;;;;;;4360701;28;659864;-74
2023/02/20 03:21:09;;;;;;;33.97;12.97;;;-0.20;99.90;;;;;;4361318;28;659661;-74
2023/02/20 03:23:57;;;;;;;27.10;12.20;;;-0.20;99.90;;;;;;4384869;28;660092;-74
2023/02/20 03:26:44;;;;;;;23.23;12.00;;;-0.20;99.90;;;;;;4414150;28;660343;-74
2023/02/20 03:29:34;;;;;;;33.40;13.80;;;-0.20;99.90;;;;;;4377479;28;660285;-74
2023/02/20 03:44:42;;;;;;;30.03;12.83;;;-0.20;1.00;;;;;;4369767;28;659032;-74
2023/02/20 03:47:30;;;;;;;31.27;11.50;;;-0.20;1.00;;;;;;4399853;28;658586;-74
2023/02/20 03:50:17;;;;;;;21.97;10.20;;;-0.30;1.00;;;;;;4411151;28;658919;-75
2023/02/20 03:53:05;;;;;;;28.70;11.37;;;-0.20;99.90;;;;;;4405755;28;659257;-74
2023/02/20 03:55:53;;;;;;;27.00;10.30;;;-0.20;99.90;;;;;;4407134;28;660425;-75
2023/02/20 03:58:42;;;;;;;26.40;11.93;;;-0.20;99.90;;;;;;4400985;28;660157;-74
2023/02/20 04:01:30;;;;;;;25.60;11.77;;;-0.20;99.90;;;;;;4400820;28;659736;-74
2023/02/20 04:04:19;;;;;;;30.20;12.73;;;-0.30;99.90;;;;;;4379944;28;661114;-75
2023/02/20 04:07:09;;;;;;;28.73;11.47;;;-0.30;99.90;;;;;;4385475;28;660905;-75
2023/02/20 04:09:57;;;;;;;25.70;11.00;;;-0.30;99.90;;;;;;4390129;28;659601;-74
2023/02/20 04:12:45;;;;;;;29.50;11.23;;;-0.40;99.90;;;;;;4404235;28;659920;-74
2023/02/20 04:15:33;;;;;;;23.33;8.60;;;-0.40;99.90;;;;;;4414821;28;661099;-75
2023/02/20 04:18:22;;;;;;;24.80;10.60;;;-0.40;99.90;;;;;;4392295;28;658477;-74
2023/02/20 04:21:11;;;;;;;29.23;10.13;;;-0.50;99.90;;;;;;4408638;28;659528;-75
2023/02/20 04:24:04;;;;;;;31.67;10.30;;;-0.50;99.90;;;;;;4390024;28;659547;-75
2023/02/20 04:26:52;;;;;;;22.57;9.27;;;-0.50;99.90;;;;;;4356852;28;660291;-74
2023/02/20 04:29:39;;;;;;;23.03;9.83;;;-0.60;99.90;;;;;;4409717;28;658899;-75
2023/02/20 04:32:26;;;;;;;22.90;10.13;;;-0.60;99.90;;;;;;4383045;28;658534;-76
2023/02/20 04:35:18;;;;;;;20.60;9.30;;;-0.60;1.00;;;;;;4403528;28;660599;-75
2023/02/20 04:38:05;;;;;;;21.33;10.60;;;-0.60;1.00;;;;;;4381277;28;657643;-74
2023/02/20 04:40:52;;;;;;;23.80;10.23;;;-0.70;1.00;;;;;;4410724;28;659877;-74
2023/02/20 04:43:40;;;;;;;28.43;10.53;;;-0.70;1.00;;;;;;4405368;28;658713;-74
2023/02/20 04:46:27;;;;;;;27.00;10.37;;;-0.70;1.00;;;;;;4414615;28;659060;-75
2023/02/20 04:49:15;;;;;;;24.87;10.30;;;-0.70;1.00;;;;;;4401496;28;658921;-74
2023/02/20 04:52:04;;;;;;;23.57;9.93;;;-0.70;1.00;;;;;;4407722;28;660088;-76
2023/02/20 04:54:51;;;;;;;20.50;9.57;;;-0.80;1.00;;;;;;4386869;28;657901;-74
2023/02/20 04:57:39;;;;;;;24.10;9.73;;;-0.80;1.00;;;;;;4405273;28;657612;-75
2023/02/20 05:00:26;;;;;;;19.73;8.07;;;-0.80;1.00;;;;;;4388725;28;657965;-74
2023/02/20 05:03:13;;;;;;;22.00;9.20;;;-0.80;1.00;;;;;;4411058;28;658520;-75
2023/02/20 05:06:01;;;;;;;24.87;9.87;;;-0.80;1.00;;;;;;4389087;28;657710;-74
2023/02/20 05:08:49;;;;;;;25.97;10.33;;;-0.80;1.00;;;;;;4410876;28;658175;-75
2023/02/20 05:11:37;;;;;;;23.40;10.10;;;-0.80;1.00;;;;;;4378050;28;658314;-75
2023/02/20 05:14:25;;;;;;;20.80;9.37;;;-0.90;1.00;;;;;;4399499;28;658673;-75
2023/02/20 05:17:12;;;;;;;20.57;9.87;;;-0.80;1.00;;;;;;4378658;28;658696;-75
2023/02/20 05:19:59;;;;;;;26.13;10.23;;;-0.80;1.00;;;;;;4403810;28;657539;-75
2023/02/20 05:22:45;;;;;;;25.35;9.98;;;-0.70;99.90;;;;;;4388937;28;658717;-75
2023/02/20 05:25:34;;;;;;;23.53;10.20;;;-0.70;99.90;;;;;;4402339;28;660184;-75
2023/02/20 05:28:21;;;;;;;27.63;9.97;;;-0.70;99.90;;;;;;4382777;28;660111;-75
2023/02/20 05:31:09;;;;;;;25.17;10.47;;;-0.60;99.90;;;;;;4403640;28;658499;-75
2023/02/20 05:33:56;;;;;;;27.97;10.03;;;-0.60;99.90;;;;;;4382161;28;659487;-75
2023/02/20 05:36:43;;;;;;;24.60;10.00;;;-0.60;92.70;;;;;;4407622;28;660571;-75
2023/02/20 05:39:30;;;;;;;23.77;10.18;;;-0.50;1.00;;;;;;4382512;28;659666;-74
2023/02/20 05:42:20;;;;;;;32.00;10.63;;;-0.50;1.00;;;;;;4409078;28;659958;-75
2023/02/20 05:45:08;;;;;;;24.83;9.77;;;-0.40;1.00;;;;;;4381638;28;659642;-75
2023/02/20 05:47:55;;;;;;;30.57;10.40;;;-0.40;1.00;;;;;;4391136;28;657767;-73
2023/02/20 05:50:42;;;;;;;22.03;9.30;;;-0.30;99.90;;;;;;4412000;28;659008;-76
2023/02/20 05:53:30;;;;;;;24.37;11.13;;;-0.20;99.90;;;;;;4409345;28;658807;-74
2023/02/20 05:56:18;;;;;;;27.07;10.00;;;-0.20;1.00;;;;;;4411255;28;660272;-75
2023/02/20 05:59:07;;;;;;;27.40;10.47;;;-0.20;99.90;;;;;;4403378;28;659041;-74
2023/02/20 06:01:56;;;;;;;27.67;10.63;;;-0.20;99.90;;;;;;4399879;28;660079;-75
2023/02/20 06:04:43;;;;;;;24.77;10.30;;;-0.20;99.90;;;;;;4384526;28;660133;-75
2023/02/20 06:07:31;;;;;;;27.80;11.03;;;-0.10;99.90;;;;;;4388575;28;659679;-74
2023/02/20 06:10:19;;;;;;;29.73;11.70;;;-0.10;1.00;;;;;;4411452;28;659720;-76
2023/02/20 06:13:06;;;;;;;25.20;11.23;;;-0.10;99.90;;;;;;4384131;28;659064;-74
2023/02/20 06:15:54;;;;;;;36.90;10.67;;;-0.10;99.90;;;;;;4408167;28;659929;-75
2023/02/20 06:18:42;;;;;;;22.20;10.87;;;-0.10;99.90;;;;;;4381436;28;660103;-75
2023/02/20 06:21:29;;;;;;;22.43;9.87;;;-0.10;99.90;;;;;;4403761;28;659917;-75
2023/02/20 06:24:16;;;;;;;26.47;10.23;;;-0.10;1.00;;;;;;4387771;28;659112;-74
2023/02/20 06:27:05;;;;;;;24.00;9.67;;;0.00;99.90;;;;;;4407308;28;658673;-75
2023/02/20 06:29:52;;;;;;;18.63;8.60;;;0.10;1.00;;;;;;4387196;28;658558;-75
2023/02/20 06:32:41;;;;;;;18.77;9.10;;;0.10;1.00;;;;;;4407602;28;656377;-75
2023/02/20 06:35:28;;;;;;;26.43;9.60;;;0.10;1.00;;;;;;4385945;28;657100;-74
2023/02/20 06:38:15;;;;;;;25.33;8.87;;;0.10;99.90;;;;;;4393862;28;656583;-74
2023/02/20 06:41:02;;;;;;;23.77;8.20;;;0.20;99.90;;;;;;4405032;28;658419;-74
2023/02/20 06:43:50;;;;;;;16.27;8.13;;;0.30;1.00;;;;;;4408385;28;657748;-74
2023/02/20 06:46:37;;;;;;;23.17;8.33;;;0.30;1.00;;;;;;4411446;28;656605;-76
2023/02/20 06:49:26;;;;;;;19.33;8.07;;;0.30;1.00;;;;;;4415556;28;656182;-75
2023/02/20 06:52:13;;;;;;;19.98;7.53;;;0.30;1.00;;;;;;4375979;28;657943;-76
2023/02/20 06:55:00;;;;;;;18.23;7.03;;;0.40;1.00;;;;;;4395018;28;656642;-74
2023/02/20 06:57:48;;;;;;;23.17;8.10;;;0.50;1.00;;;;;;4410275;28;657533;-75
2023/02/20 07:00:35;;;;;;;24.20;8.48;;;0.60;1.00;;;;;;4391803;28;657241;-75
2023/02/20 07:03:22;;;;;;;16.20;6.90;;;0.60;99.90;;;;;;4406144;28;656677;-75
2023/02/20 07:06:12;;;;;;;18.53;7.63;;;0.70;48.90;;;;;;4410251;28;657363;-75
2023/02/20 07:08:59;;;;;;;18.20;8.53;;;0.70;99.90;;;;;;4409361;28;657798;-75
2023/02/20 07:11:47;;;;;;;20.50;8.17;;;0.70;99.90;;;;;;4392797;28;657500;-76
2023/02/20 07:14:34;;;;;;;12.63;5.23;;;0.70;82.90;;;;;;4416949;28;657728;-76
2023/02/20 07:17:22;;;;;;;19.90;7.80;;;0.70;94.80;;;;;;4385132;28;657679;-76
2023/02/20 07:20:10;;;;;;;17.50;6.40;;;0.80;1.00;;;;;;4416791;28;657774;-75
2023/02/20 07:22:58;;;;;;;21.77;8.67;;;0.80;1.00;;;;;;4391237;28;657758;-75
2023/02/20 07:25:46;;;;;;;22.10;7.03;;;0.80;1.00;;;;;;4394535;28;656954;-74
2023/02/20 07:28:35;;;;;;;20.43;7.83;;;1.00;1.00;;;;;;4412737;28;657435;-76
2023/02/20 07:31:22;;;;;;;18.23;7.37;;;1.10;1.00;;;;;;4386943;28;658021;-74
2023/02/20 07:34:09;;;;;;;19.43;8.00;;;1.10;1.00;;;;;;4402650;28;656709;-76
2023/02/20 07:36:56;;;;;;;19.93;6.77;;;1.10;1.00;;;;;;4388962;28;656448;-77
2023/02/20 07:39:45;;;;;;;16.17;6.50;;;1.20;1.00;;;;;;4413325;28;656468;-75
2023/02/20 07:42:32;;;;;;;11.60;5.40;;;1.30;1.00;;;;;;4395082;28;657649;-77
2023/02/20 07:45:19;;;;;;;15.97;5.80;;;1.20;1.00;;;;;;4413299;28;656538;-77
2023/02/20 07:48:07;;;;;;;13.17;5.63;;;1.30;1.00;;;;;;4394582;28;656225;-76
2023/02/20 07:50:54;;;;;;;17.93;6.53;;;1.40;1.00;;;;;;4417239;28;656457;-78
2023/02/20 07:53:45;;;;;;;13.80;6.50;;;1.60;1.00;;;;;;4384161;28;656364;-78
2023/02/20 07:56:34;;;;;;;16.77;5.90;;;1.60;99.90;;;;;;4392061;28;657277;-78
2023/02/20 07:59:21;;;;;;;10.37;5.27;;;1.60;99.90;;;;;;4389056;28;657512;-76
2023/02/20 08:02:08;;;;;;;18.92;6.90;;;1.70;99.90;;;;;;4407710;28;658400;-77
2023/02/20 08:04:55;;;;;;;15.03;6.13;;;1.70;99.90;;;;;;4385652;28;657282;-76
2023/02/20 08:07:45;;;;;;;15.67;6.27;;;1.90;99.90;;;;;;4409485;28;658303;-76
2023/02/20 08:10:32;;;;;;;12.60;6.43;;;2.00;99.90;;;;;;4390049;28;657902;-77
2023/02/20 08:13:21;;;;;;;9.77;4.87;;;1.90;58.30;;;;;;4407021;28;657445;-77
2023/02/20 08:16:08;;;;;;;16.50;6.67;;;2.00;99.90;;;;;;4389119;28;657576;-77
2023/02/20 08:18:55;;;;;;;11.33;5.80;;;2.10;99.90;;;;;;4391909;28;657874;-76
2023/02/20 08:21:43;;;;;;;16.00;5.80;;;2.10;99.90;;;;;;4403482;28;659179;-76
2023/02/20 08:24:30;;;;;;;14.63;6.80;;;2.10;99.90;;;;;;4402410;28;658009;-75
2023/02/20 08:27:17;;;;;;;14.60;6.30;;;2.20;99.90;;;;;;4398607;28;658591;-77
2023/02/20 08:30:07;;;;;;;15.27;6.17;;;2.20;1.00;;;;;;4407400;28;658212;-75
2023/02/20 08:32:55;;;;;;;19.97;6.30;;;2.30;99.90;;;;;;4416986;28;655706;-76
2023/02/20 08:35:42;;;;;;;13.70;5.67;;;2.10;1.00;;;;;;4391028;28;658134;-77
2023/02/20 08:38:31;;;;;;;15.87;6.90;;;2.10;99.90;;;;;;4415859;28;656544;-77
2023/02/20 08:41:18;;;;;;;14.97;6.97;;;2.10;99.90;;;;;;4383380;28;658384;-76
2023/02/20 08:44:05;;;;;;;13.47;6.67;;;2.10;99.90;;;;;;4389898;28;657969;-74
2023/02/20 08:46:54;;;;;;;16.67;6.83;;;2.30;99.90;;;;;;4412214;28;657948;-77
2023/02/20 08:49:41;;;;;;;14.00;7.00;;;2.30;1.00;;;;;;4387716;28;657677;-77
2023/02/20 08:52:28;;;;;;;17.17;6.60;;;2.50;32.50;;;;;;4407916;28;657073;-77
2023/02/20 08:55:16;;;;;;;12.83;5.83;;;2.60;1.00;;;;;;4389241;28;657915;-76
2023/02/20 08:58:03;;;;;;;18.50;6.93;;;2.70;1.00;;;;;;4416089;28;656860;-76
2023/02/20 09:00:50;;;;;;;15.07;7.67;;;2.60;1.00;;;;;;4395360;28;656427;-74
2023/02/20 09:03:40;;;;;;;16.50;7.10;;;2.80;43.90;;;;;;4409858;28;657630;-76
2023/02/20 09:06:28;;;;;;;16.87;6.87;;;3.00;1.00;;;;;;4390522;28;658272;-78
2023/02/20 09:09:15;;;;;;;16.80;7.00;;;3.10;99.90;;;;;;4399438;28;656370;-75
2023/02/20 09:12:02;;;;;;;16.13;8.00;;;3.10;99.90;;;;;;4410395;28;658306;-76
2023/02/20 09:14:50;;;;;;;16.83;7.60;;;3.20;1.00;;;;;;4399169;28;657797;-75
2023/02/20 09:17:38;;;;;;;11.63;6.40;;;3.10;99.90;;;;;;4416141;28;657379;-76
2023/02/20 09:20:27;;;;;;;12.97;6.20;;;3.20;99.90;;;;;;4377893;28;658292;-74
2023/02/20 09:23:14;;;;;;;12.57;6.60;;;3.20;99.90;;;;;;4401241;28;657474;-76
2023/02/20 09:26:01;;;;;;;15.57;6.63;;;3.20;1.00;;;;;;4372743;28;657372;-77
2023/02/20 09:28:48;;;;;;;14.30;6.60;;;3.30;99.90;;;;;;4386667;28;657580;-77
2023/02/20 09:31:36;;;;;;;17.27;7.03;;;3.30;1.00;;;;;;4360578;28;657355;-75
2023/02/20 09:34:23;;;;;;;15.20;7.07;;;3.30;99.90;;;;;;4398135;28;656784;-77
2023/02/20 09:37:12;;;;;;;16.30;6.87;;;3.30;99.90;;;;;;4386227;28;657626;-74
2023/02/20 09:39:59;;;;;;;11.30;6.53;;;3.20;1.00;;;;;;4396866;28;657719;-77
2023/02/20 09:42:53;;;;;;;15.77;6.63;;;3.30;1.00;;;;;;4385529;28;656576;-76
2023/02/20 09:45:41;;;;;;;16.20;6.80;;;3.40;1.00;;;;;;4371634;28;656836;-76
2023/02/20 09:48:40;;;;;;;11.87;5.53;;;3.50;99.90;;;;;;4414886;28;656919;-77
2023/02/20 09:51:29;;;;;;;11.53;6.20;;;3.40;1.00;;;;;;4382265;28;657776;-77
2023/02/20 09:54:20;;;;;;;20.67;7.03;;;3.60;99.90;;;;;;4387785;28;656753;-78
2023/02/20 09:57:11;;;;;;;10.80;6.27;;;3.50;99.90;;;;;;4370682;28;658678;-76
2023/02/20 10:00:00;;;;;;;13.77;5.97;;;3.50;1.00;;;;;;4387006;28;657723;-77
2023/02/20 10:02:52;;;;;;;12.60;6.30;;;3.50;1.00;;;;;;4389489;28;657300;-77
2023/02/20 10:05:39;;;;;;;14.83;6.13;;;3.60;1.00;;;;;;4391950;28;656917;-77
2023/02/20 10:08:26;;;;;;;11.80;4.87;;;3.80;99.90;;;;;;4378780;28;656594;-76
2023/02/20 10:11:19;;;;;;;14.67;5.93;;;3.80;99.90;;;;;;4408469;28;657771;-77
2023/02/20 10:14:21;;;;;;;16.70;5.88;;;3.80;1.00;;;;;;4376294;28;658310;-76
2023/02/20 10:17:13;;;;;;;9.33;4.13;;;3.80;1.00;;;;;;4386766;28;657072;-76
2023/02/20 10:20:02;;;;;;;10.33;4.53;;;3.80;99.90;;;;;;4370006;28;655603;-75
2023/02/20 10:22:53;;;;;;;7.47;4.70;;;3.80;1.00;;;;;;4400005;28;657623;-76
2023/02/20 10:25:41;;;;;;;10.27;4.57;;;3.80;1.00;;;;;;4389104;28;655234;-74
2023/02/20 10:28:30;;;;;;;13.90;5.87;;;3.90;1.00;;;;;;4395573;28;656854;-78
2023/02/20 10:31:26;;;;;;;13.50;7.10;;;3.90;1.00;;;;;;4379475;28;656594;-77
2023/02/20 10:34:14;;;;;;;13.67;7.03;;;4.00;1.00;;;;;;4383971;28;656582;-76
2023/02/20 10:37:04;;;;;;;10.87;6.33;;;4.00;1.00;;;;;;4390569;28;656243;-76
2023/02/20 10:39:54;;;;;;;14.00;6.73;;;4.10;1.00;;;;;;4391342;28;656889;-75
2023/02/20 10:42:45;;;;;;;13.83;6.43;;;4.20;1.00;;;;;;4391362;28;656456;-78
2023/02/20 10:45:39;;;;;;;9.17;4.43;;;4.30;1.00;;;;;;4382763;28;656726;-77
2023/02/20 10:48:28;;;;;;;9.73;5.80;;;4.40;1.00;;;;;;4362333;28;655564;-75
2023/02/20 10:51:17;;;;;;;13.67;6.47;;;4.50;1.00;;;;;;4388654;28;655635;-75
2023/02/20 10:54:07;;;;;;;8.10;4.30;;;4.60;1.00;;;;;;4406741;28;656247;-76
2023/02/20 10:56:56;;;;;;;12.83;5.17;;;4.70;99.90;;;;;;4384017;28;655760;-79
2023/02/20 10:59:45;;;;;;;10.70;4.37;;;4.80;99.90;;;;;;4385170;28;658043;-77
2023/02/20 11:02:36;;;;;;;8.63;4.87;;;4.70;99.90;;;;;;4387487;28;658600;-77
2023/02/20 11:05:23;;;;;;;9.70;4.80;;;4.70;1.00;;;;;;4385890;28;656958;-76
2023/02/20 11:08:10;;;;;;;11.23;4.83;;;4.80;1.00;;;;;;4393676;28;655379;-75
2023/02/20 11:11:00;;;;;;;8.10;4.13;;;4.90;99.90;;;;;;4411645;28;657443;-78
2023/02/20 11:13:47;;;;;;;7.27;4.00;;;5.00;99.90;;;;;;4388165;28;657221;-79
2023/02/20 11:16:36;;;;;;;7.47;3.87;;;4.90;99.90;;;;;;4411787;28;656925;-76
2023/02/20 11:19:28;;;;;;;5.73;3.00;;;5.00;99.90;;;;;;4381671;28;656963;-75
2023/02/20 11:22:16;;;;;;;7.77;3.20;;;5.30;99.90;;;;;;4375805;28;657441;-75
2023/02/20 11:25:15;;;;;;;7.83;3.63;;;5.20;99.90;;;;;;4414252;28;656736;-77
2023/02/20 11:28:08;;;;;;;8.23;3.90;;;5.20;99.90;;;;;;4383116;28;657452;-75
2023/02/20 11:31:00;;;;;;;5.93;2.70;;;5.40;99.90;;;;;;4394610;28;656904;-79
2023/02/20 11:33:49;;;;;;;10.77;4.40;;;5.30;99.90;;;;;;4383574;28;658038;-76
2023/02/20 11:36:41;;;;;;;7.10;3.73;;;5.30;99.90;;;;;;4392849;28;657524;-78
2023/02/20 11:39:29;;;;;;;7.88;3.63;;;5.40;99.90;;;;;;4389722;28;657381;-76
2023/02/20 11:42:18;;;;;;;6.03;3.70;;;5.30;99.90;;;;;;4388846;28;657545;-77
2023/02/20 11:45:13;;;;;;;9.38;4.35;;;5.30;99.90;;;;;;4392904;28;656576;-75
2023/02/20 11:48:09;;;;;;;8.40;4.40;;;5.50;99.90;;;;;;4373922;28;657291;-74
2023/02/20 11:50:56;;;;;;;7.93;4.27;;;5.50;99.90;;;;;;4385528;28;656992;-77
2023/02/20 11:53:44;;;;;;;12.07;5.10;;;5.60;99.90;;;;;;4413941;28;657199;-80
2023/02/20 11:56:32;;;;;;;9.80;4.47;;;5.50;1.00;;;;;;4394669;28;658358;-77
2023/02/20 11:59:40;;;;;;;7.93;4.73;;;5.50;1.00;;;;;;4416818;28;655119;-76
2023/02/20 12:02:28;;;;;;;10.15;4.75;;;5.60;99.90;;;;;;4385314;28;655394;-76
2023/02/20 12:05:15;;;;;;;10.73;5.32;;;5.50;1.00;;;;;;4390804;28;658079;-76
2023/02/20 12:08:02;;;;;;;8.90;5.30;;;5.60;1.00;;;;;;4412737;28;657074;-78
2023/02/20 12:10:52;;;;;;;14.90;6.80;;;5.60;1.00;;;;;;4408315;28;655782;-75
2023/02/20 12:13:43;;;;;;;12.53;7.17;;;5.70;1.00;;;;;;4410125;28;656753;-78
2023/02/20 12:16:52;;;;;;;8.57;4.87;;;5.70;1.00;;;;;;4368490;28;657222;-76
2023/02/20 12:19:45;;;;;;;12.87;4.37;;;5.80;1.00;;;;;;4384174;28;655865;-77
2023/02/20 12:22:34;;;;;;;12.97;7.17;;;5.70;1.00;;;;;;4376849;28;657122;-79
2023/02/20 12:25:24;;;;;;;8.37;4.80;;;5.70;1.00;;;;;;4390391;28;656506;-77
2023/02/20 12:28:15;;;;;;;14.90;7.73;;;5.70;1.00;;;;;;4390244;28;655721;-80
2023/02/20 12:31:13;;;;;;;13.15;6.50;;;5.80;99.90;;;;;;4393762;28;657364;-78
2023/02/20 12:34:07;;;;;;;18.50;8.50;;;5.80;8.00;;;;;;4389746;28;657276;-76
2023/02/20 12:36:57;;;;;;;13.17;7.43;;;5.90;21.90;;;;;;4371417;28;656654;-79
2023/02/20 12:39:47;;;;;;;14.83;7.60;;;6.00;1.00;;;;;;4369502;28;657530;-81
2023/02/20 12:42:39;;;;;;;15.80;6.80;;;6.10;1.00;;;;;;4366216;28;656983;-75
2023/02/20 12:45:30;;;;;;;14.67;7.13;;;6.10;1.00;;;;;;4372790;28;657319;-79
2023/02/20 12:48:27;;;;;;;16.73;8.17;;;6.00;1.00;;;;;;4368509;28;656278;-77
2023/02/20 12:51:21;;;;;;;16.07;7.70;;;6.10;1.00;;;;;;4367021;28;656979;-76
2023/02/20 12:54:17;;;;;;;12.37;7.03;;;6.20;1.00;;;;;;4365885;28;657287;-77
2023/02/20 12:57:07;;;;;;;12.23;6.70;;;6.30;1.00;;;;;;4363809;28;656804;-78
2023/02/20 12:59:56;;;;;;;15.97;7.40;;;6.40;1.00;;;;;;4361583;28;657077;-75
2023/02/20 13:02:46;;;;;;;16.47;8.13;;;6.70;99.90;;;;;;4372399;28;656764;-82
2023/02/20 13:05:33;;;;;;;16.02;8.25;;;6.90;99.90;;;;;;4374807;28;658743;-81
2023/02/20 13:08:23;;;;;;;13.03;7.13;;;6.90;99.90;;;;;;4365366;28;657887;-77
2023/02/20 13:11:13;;;;;;;16.00;6.37;;;7.00;1.00;;;;;;4374477;28;657718;-75
2023/02/20 13:14:04;;;;;;;11.77;6.50;;;6.90;1.00;;;;;;4380757;28;656409;-75
2023/02/20 13:16:55;;;;;;;12.73;7.70;;;6.70;1.00;;;;;;4376713;28;656998;-77
2023/02/20 13:19:45;;;;;;;8.87;5.03;;;6.60;99.90;;;;;;4363555;28;658019;-77
2023/02/20 13:22:33;;;;;;;9.97;6.77;;;6.70;1.00;;;;;;4372583;28;658057;-78
2023/02/20 13:25:41;;;;;;;16.60;5.10;;;6.70;79.10;;;;;;4384359;28;655609;-74
2023/02/20 13:28:41;;;;;;;15.30;7.80;;;6.70;97.20;;;;;;4363390;28;657822;-76
2023/02/20 13:31:43;;;;;;;13.17;7.70;;;6.80;23.80;;;;;;4369428;28;657450;-77
2023/02/20 13:34:35;;;;;;;12.17;6.83;;;6.90;90.20;;;;;;4350948;28;658186;-79
2023/02/20 13:37:53;;;;;;;8.70;5.27;;;6.90;1.00;;;;;;4379941;28;658140;-80
2023/02/20 13:40:44;;;;;;;15.53;7.23;;;7.00;1.00;;;;;;4366679;28;656480;-75
2023/02/20 13:43:32;;;;;;;8.73;5.60;;;6.90;20.70;;;;;;4386890;28;656749;-75
2023/02/20 13:46:24;;;;;;;13.90;6.77;;;7.10;1.00;;;;;;4415430;28;656203;-77
2023/02/20 13:49:11;;;;;;;12.85;6.78;;;7.30;1.00;;;;;;4386580;28;656603;-77
2023/02/20 13:51:59;;;;;;;10.00;4.97;;;7.40;1.00;;;;;;4399200;28;656827;-77
2023/02/20 13:54:47;;;;;;;16.00;6.50;;;7.30;1.00;;;;;;4383549;28;656298;-76
2023/02/20 13:57:34;;;;;;;12.20;6.83;;;7.40;1.00;;;;;;4407940;28;657227;-77
2023/02/20 14:00:27;;;;;;;10.07;5.53;;;7.40;1.00;;;;;;4385886;28;656675;-78
2023/02/20 14:03:19;;;;;;;13.35;6.68;;;7.40;1.00;;;;;;4392546;28;656505;-78
2023/02/20 14:06:08;;;;;;;11.00;5.57;;;7.30;1.00;;;;;;4378740;28;656702;-76
2023/02/20 14:09:08;;;;;;;9.80;5.53;;;7.30;1.00;;;;;;4386252;28;656263;-75
2023/02/20 14:12:04;;;;;;;11.57;6.27;;;7.30;1.00;;;;;;4371095;28;655360;-75
2023/02/20 14:14:51;;;;;;;9.27;5.30;;;7.30;1.00;;;;;;4388935;28;656560;-77
2023/02/20 14:17:39;;;;;;;10.20;5.00;;;7.30;1.00;;;;;;4408057;28;656202;-76
2023/02/20 14:20:33;;;;;;;11.23;5.50;;;7.30;1.00;;;;;;4377732;28;656999;-77
2023/02/20 14:23:24;;;;;;;8.97;4.47;;;7.20;1.00;;;;;;4378403;28;657314;-76
2023/02/20 14:26:18;;;;;;;12.27;6.90;;;7.20;1.00;;;;;;4390209;28;655784;-79
2023/02/20 14:29:18;;;;;;;11.47;5.87;;;7.20;1.00;;;;;;4366510;28;656731;-78
2023/02/20 14:32:06;;;;;;;11.60;5.63;;;7.20;1.00;;;;;;4377384;28;657290;-75
2023/02/20 14:34:55;;;;;;;9.83;5.27;;;7.30;1.00;;;;;;4413802;28;657383;-78
2023/02/20 14:37:44;;;;;;;12.07;6.20;;;7.30;1.00;;;;;;4389840;28;655741;-78
2023/02/20 14:40:34;;;;;;;13.60;6.83;;;7.30;1.00;;;;;;4375662;28;657107;-77
2023/02/20 14:43:21;;;;;;;11.30;6.37;;;7.30;1.00;;;;;;4380976;28;656627;-79
2023/02/20 14:46:20;;;;;;;9.87;5.70;;;7.30;1.00;;;;;;4403785;28;656826;-78